sensor_id;sensor_type;location;lat;lon;timestamp;pressure;altitude;pressure_sealevel;temperature;humidity
61697;BME280;47610;52.252;20.922;2022-09-12T00:00:07;99790.75;;;12.26;67.66
61697;BME280;47610;52.252;20.922;2022-09-12T00:02:54;99789.78;;;12.25;67.81
61697;BME280;47610;52.252;20.922;2022-09-12T00:05:45;99787.84;;;12.22;67.88
61697;BME280;47610;52.252;20.922;2022-09-12T00:08:32;99789.89;;;12.18;68.08
61697;BME280;47610;52.252;20.922;2022-09-12T00:11:19;99790.79;;;12.16;68.47
61697;BME280;47610;52.252;20.922;2022-09-12T00:14:07;99792.70;;;12.11;68.50
61697;BME280;47610;52.252;20.922;2022-09-12T00:16:57;99789.87;;;12.09;68.74
61697;BME280;47610;52.252;20.922;2022-09-12T00:19:45;99791.01;;;12.07;68.65
61697;BME280;47610;52.252;20.922;2022-09-12T00:22:32;99787.44;;;12.05;68.80
61697;BME280;47610;52.252;20.922;2022-09-12T00:25:19;99787.50;;;12.01;68.79
61697;BME280;47610;52.252;20.922;2022-09-12T00:28:06;99787.02;;;12.01;68.87
61697;BME280;47610;52.252;20.922;2022-09-12T00:30:53;99790.96;;;11.99;69.10
61697;BME280;47610;52.252;20.922;2022-09-12T00:33:41;99786.45;;;11.98;69.30
61697;BME280;47610;52.252;20.922;2022-09-12T00:36:29;99783.75;;;11.98;69.27
61697;BME280;47610;52.252;20.922;2022-09-12T00:39:19;99781.85;;;11.96;69.43
61697;BME280;47610;52.252;20.922;2022-09-12T00:42:07;99784.76;;;11.98;69.47
61697;BME280;47610;52.252;20.922;2022-09-12T00:44:55;99786.16;;;11.99;69.41
61697;BME280;47610;52.252;20.922;2022-09-12T00:47:43;99781.70;;;11.98;69.63
61697;BME280;47610;52.252;20.922;2022-09-12T00:50:31;99778.52;;;11.98;69.53
61697;BME280;47610;52.252;20.922;2022-09-12T00:53:19;99789.78;;;12.01;69.60
61697;BME280;47610;52.252;20.922;2022-09-12T00:56:07;99790.98;;;11.99;69.27
61697;BME280;47610;52.252;20.922;2022-09-12T00:58:59;99787.70;;;12.00;69.54
61697;BME280;47610;52.252;20.922;2022-09-12T01:01:49;99790.30;;;11.96;69.93
61697;BME280;47610;52.252;20.922;2022-09-12T01:04:38;99793.25;;;11.93;69.77
61697;BME280;47610;52.252;20.922;2022-09-12T01:07:27;99790.89;;;11.90;69.97
61697;BME280;47610;52.252;20.922;2022-09-12T01:10:16;99796.65;;;11.87;70.36
61697;BME280;47610;52.252;20.922;2022-09-12T01:13:07;99800.31;;;11.84;70.34
61697;BME280;47610;52.252;20.922;2022-09-12T01:15:54;99803.84;;;11.81;70.23
61697;BME280;47610;52.252;20.922;2022-09-12T01:18:57;99802.10;;;11.78;70.39
61697;BME280;47610;52.252;20.922;2022-09-12T01:21:49;99808.54;;;11.76;70.32
61697;BME280;47610;52.252;20.922;2022-09-12T01:24:52;99810.36;;;11.77;70.28
61697;BME280;47610;52.252;20.922;2022-09-12T01:27:55;99810.08;;;11.76;70.63
61697;BME280;47610;52.252;20.922;2022-09-12T01:30:46;99811.19;;;11.72;70.43
61697;BME280;47610;52.252;20.922;2022-09-12T01:33:49;99814.12;;;11.71;70.69
61697;BME280;47610;52.252;20.922;2022-09-12T01:36:46;99812.20;;;11.70;70.70
61697;BME280;47610;52.252;20.922;2022-09-12T01:39:42;99812.23;;;11.68;70.61
61697;BME280;47610;52.252;20.922;2022-09-12T01:42:37;99809.80;;;11.68;70.95
61697;BME280;47610;52.252;20.922;2022-09-12T01:45:29;99811.77;;;11.70;70.84
61697;BME280;47610;52.252;20.922;2022-09-12T01:48:20;99812.05;;;11.71;71.10
61697;BME280;47610;52.252;20.922;2022-09-12T01:51:11;99815.88;;;11.70;71.06
61697;BME280;47610;52.252;20.922;2022-09-12T01:54:03;99825.60;;;11.71;70.88
61697;BME280;47610;52.252;20.922;2022-09-12T01:56:54;99821.36;;;11.70;71.14
61697;BME280;47610;52.252;20.922;2022-09-12T01:59:45;99824.62;;;11.69;71.12
61697;BME280;47610;52.252;20.922;2022-09-12T02:02:38;99823.98;;;11.68;71.09
61697;BME280;47610;52.252;20.922;2022-09-12T02:05:30;99824.41;;;11.68;71.11
61697;BME280;47610;52.252;20.922;2022-09-12T02:08:21;99821.08;;;11.66;71.29
61697;BME280;47610;52.252;20.922;2022-09-12T02:11:10;99818.78;;;11.65;71.06
61697;BME280;47610;52.252;20.922;2022-09-12T02:14:02;99816.52;;;11.64;71.32
61697;BME280;47610;52.252;20.922;2022-09-12T02:16:53;99820.27;;;11.65;71.35
61697;BME280;47610;52.252;20.922;2022-09-12T02:19:45;99818.29;;;11.65;71.35
61697;BME280;47610;52.252;20.922;2022-09-12T02:22:37;99820.04;;;11.66;71.25
61697;BME280;47610;52.252;20.922;2022-09-12T02:25:26;99824.27;;;11.67;71.35
61697;BME280;47610;52.252;20.922;2022-09-12T02:28:17;99822.75;;;11.66;71.26
61697;BME280;47610;52.252;20.922;2022-09-12T02:31:14;99821.48;;;11.64;71.34
61697;BME280;47610;52.252;20.922;2022-09-12T02:34:12;99823.99;;;11.66;71.33
61697;BME280;47610;52.252;20.922;2022-09-12T02:37:07;99831.17;;;11.66;71.47
61697;BME280;47610;52.252;20.922;2022-09-12T02:39:59;99828.04;;;11.66;71.37
61697;BME280;47610;52.252;20.922;2022-09-12T02:42:46;99829.66;;;11.68;71.18
61697;BME280;47610;52.252;20.922;2022-09-12T02:45:34;99831.51;;;11.69;71.39
61697;BME280;47610;52.252;20.922;2022-09-12T02:48:25;99831.30;;;11.69;71.27
61697;BME280;47610;52.252;20.922;2022-09-12T02:51:14;99837.23;;;11.69;71.43
61697;BME280;47610;52.252;20.922;2022-09-12T02:54:03;99840.50;;;11.70;71.51
61697;BME280;47610;52.252;20.922;2022-09-12T02:56:50;99846.88;;;11.71;71.51
61697;BME280;47610;52.252;20.922;2022-09-12T02:59:38;99843.25;;;11.69;71.94
61697;BME280;47610;52.252;20.922;2022-09-12T03:02:31;99846.42;;;11.69;71.71
61697;BME280;47610;52.252;20.922;2022-09-12T03:05:26;99846.62;;;11.69;71.80
61697;BME280;47610;52.252;20.922;2022-09-12T03:11:34;99846.08;;;11.68;71.61
61697;BME280;47610;52.252;20.922;2022-09-12T03:17:40;99853.06;;;11.67;72.00
61697;BME280;47610;52.252;20.922;2022-09-12T03:20:39;99850.95;;;11.63;72.07
61697;BME280;47610;52.252;20.922;2022-09-12T03:23:33;99849.35;;;11.59;72.36
61697;BME280;47610;52.252;20.922;2022-09-12T03:26:29;99853.33;;;11.59;72.31
61697;BME280;47610;52.252;20.922;2022-09-12T03:29:18;99858.50;;;11.59;72.59
61697;BME280;47610;52.252;20.922;2022-09-12T03:32:06;99866.75;;;11.60;72.27
61697;BME280;47610;52.252;20.922;2022-09-12T03:34:52;99869.13;;;11.61;72.53
61697;BME280;47610;52.252;20.922;2022-09-12T03:37:39;99869.64;;;11.63;72.50
61697;BME280;47610;52.252;20.922;2022-09-12T03:40:26;99876.67;;;11.65;72.68
61697;BME280;47610;52.252;20.922;2022-09-12T03:43:14;99880.66;;;11.65;72.61
61697;BME280;47610;52.252;20.922;2022-09-12T03:46:00;99879.14;;;11.62;72.89
61697;BME280;47610;52.252;20.922;2022-09-12T03:48:48;99880.47;;;11.62;72.80
61697;BME280;47610;52.252;20.922;2022-09-12T03:51:35;99883.90;;;11.61;72.64
61697;BME280;47610;52.252;20.922;2022-09-12T03:54:22;99883.52;;;11.61;72.80
61697;BME280;47610;52.252;20.922;2022-09-12T03:57:09;99882.97;;;11.60;73.35
61697;BME280;47610;52.252;20.922;2022-09-12T03:59:56;99878.60;;;11.57;72.95
61697;BME280;47610;52.252;20.922;2022-09-12T04:02:42;99883.77;;;11.57;73.12
61697;BME280;47610;52.252;20.922;2022-09-12T04:05:31;99887.70;;;11.57;73.11
61697;BME280;47610;52.252;20.922;2022-09-12T04:08:17;99884.83;;;11.57;73.40
61697;BME280;47610;52.252;20.922;2022-09-12T04:11:08;99887.41;;;11.57;73.49
61697;BME280;47610;52.252;20.922;2022-09-12T04:13:55;99891.05;;;11.57;73.19
61697;BME280;47610;52.252;20.922;2022-09-12T04:16:42;99893.74;;;11.58;73.07
61697;BME280;47610;52.252;20.922;2022-09-12T04:19:29;99898.48;;;11.57;73.15
61697;BME280;47610;52.252;20.922;2022-09-12T04:22:17;99896.84;;;11.57;73.31
61697;BME280;47610;52.252;20.922;2022-09-12T04:25:05;99895.86;;;11.56;73.23
61697;BME280;47610;52.252;20.922;2022-09-12T04:27:52;99894.84;;;11.55;73.54
61697;BME280;47610;52.252;20.922;2022-09-12T04:30:38;99899.85;;;11.54;73.59
61697;BME280;47610;52.252;20.922;2022-09-12T04:33:25;99904.97;;;11.54;73.83
61697;BME280;47610;52.252;20.922;2022-09-12T04:36:14;99910.54;;;11.50;73.70
61697;BME280;47610;52.252;20.922;2022-09-12T04:39:02;99907.63;;;11.49;73.94
61697;BME280;47610;52.252;20.922;2022-09-12T04:41:49;99901.80;;;11.47;73.78
61697;BME280;47610;52.252;20.922;2022-09-12T04:44:36;99901.29;;;11.45;73.60
61697;BME280;47610;52.252;20.922;2022-09-12T04:47:23;99904.18;;;11.42;73.88
61697;BME280;47610;52.252;20.922;2022-09-12T04:50:11;99904.54;;;11.40;73.80
61697;BME280;47610;52.252;20.922;2022-09-12T04:52:59;99911.86;;;11.40;73.95
61697;BME280;47610;52.252;20.922;2022-09-12T04:55:46;99912.44;;;11.39;73.98
61697;BME280;47610;52.252;20.922;2022-09-12T04:58:33;99916.02;;;11.37;73.78
61697;BME280;47610;52.252;20.922;2022-09-12T05:01:21;99920.77;;;11.37;74.14
61697;BME280;47610;52.252;20.922;2022-09-12T05:04:09;99924.83;;;11.34;73.87
61697;BME280;47610;52.252;20.922;2022-09-12T05:06:57;99924.58;;;11.32;74.09
61697;BME280;47610;52.252;20.922;2022-09-12T05:09:45;99924.05;;;11.29;74.25
61697;BME280;47610;52.252;20.922;2022-09-12T05:12:32;99923.45;;;11.29;74.31
61697;BME280;47610;52.252;20.922;2022-09-12T05:15:19;99931.73;;;11.28;74.01
61697;BME280;47610;52.252;20.922;2022-09-12T05:18:06;99934.77;;;11.26;74.43
61697;BME280;47610;52.252;20.922;2022-09-12T05:20:53;99935.92;;;11.26;74.27
61697;BME280;47610;52.252;20.922;2022-09-12T05:23:40;99940.48;;;11.29;74.25
61697;BME280;47610;52.252;20.922;2022-09-12T05:26:27;99941.83;;;11.33;74.30
61697;BME280;47610;52.252;20.922;2022-09-12T05:29:14;99939.43;;;11.35;74.05
61697;BME280;47610;52.252;20.922;2022-09-12T05:32:02;99937.73;;;11.33;74.28
61697;BME280;47610;52.252;20.922;2022-09-12T05:34:49;99939.49;;;11.34;74.22
61697;BME280;47610;52.252;20.922;2022-09-12T05:37:35;99940.30;;;11.35;74.20
61697;BME280;47610;52.252;20.922;2022-09-12T05:40:22;99939.48;;;11.36;74.29
61697;BME280;47610;52.252;20.922;2022-09-12T05:43:09;99943.64;;;11.37;74.29
61697;BME280;47610;52.252;20.922;2022-09-12T05:46:02;99945.85;;;11.37;74.15
61697;BME280;47610;52.252;20.922;2022-09-12T05:48:49;99950.89;;;11.40;74.31
61697;BME280;47610;52.252;20.922;2022-09-12T05:51:38;99948.89;;;11.41;74.50
61697;BME280;47610;52.252;20.922;2022-09-12T05:54:26;99952.73;;;11.43;74.61
61697;BME280;47610;52.252;20.922;2022-09-12T05:57:13;99950.64;;;11.43;74.60
61697;BME280;47610;52.252;20.922;2022-09-12T06:00:00;99951.23;;;11.44;74.67
61697;BME280;47610;52.252;20.922;2022-09-12T06:02:51;99946.15;;;11.45;74.95
61697;BME280;47610;52.252;20.922;2022-09-12T06:05:38;99950.63;;;11.45;75.19
61697;BME280;47610;52.252;20.922;2022-09-12T06:08:25;99951.41;;;11.42;75.56
61697;BME280;47610;52.252;20.922;2022-09-12T06:11:14;99947.66;;;11.43;75.76
61697;BME280;47610;52.252;20.922;2022-09-12T06:14:03;99947.36;;;11.42;75.93
61697;BME280;47610;52.252;20.922;2022-09-12T06:16:50;99948.51;;;11.41;75.86
61697;BME280;47610;52.252;20.922;2022-09-12T06:19:37;99945.57;;;11.42;76.23
61697;BME280;47610;52.252;20.922;2022-09-12T06:22:24;99944.44;;;11.44;76.17
61697;BME280;47610;52.252;20.922;2022-09-12T06:25:11;99947.52;;;11.45;76.34
61697;BME280;47610;52.252;20.922;2022-09-12T06:27:58;99947.39;;;11.47;76.66
61697;BME280;47610;52.252;20.922;2022-09-12T06:30:46;99945.88;;;11.50;76.61
61697;BME280;47610;52.252;20.922;2022-09-12T06:33:34;99950.73;;;11.54;76.77
61697;BME280;47610;52.252;20.922;2022-09-12T06:36:25;99946.71;;;11.59;76.77
61697;BME280;47610;52.252;20.922;2022-09-12T06:39:13;99951.23;;;11.65;77.04
61697;BME280;47610;52.252;20.922;2022-09-12T06:42:01;99958.63;;;11.64;76.71
61697;BME280;47610;52.252;20.922;2022-09-12T06:44:48;99961.33;;;11.64;77.01
61697;BME280;47610;52.252;20.922;2022-09-12T06:47:35;99959.60;;;11.65;76.86
61697;BME280;47610;52.252;20.922;2022-09-12T06:50:22;99960.40;;;11.67;77.10
61697;BME280;47610;52.252;20.922;2022-09-12T06:53:09;99959.95;;;11.68;77.13
61697;BME280;47610;52.252;20.922;2022-09-12T06:55:58;99963.59;;;11.69;77.44
61697;BME280;47610;52.252;20.922;2022-09-12T06:58:46;99958.02;;;11.72;77.46
61697;BME280;47610;52.252;20.922;2022-09-12T07:01:34;99964.81;;;11.77;77.62
61697;BME280;47610;52.252;20.922;2022-09-12T07:04:21;99964.48;;;11.82;77.41
61697;BME280;47610;52.252;20.922;2022-09-12T07:07:08;99968.81;;;11.86;77.50
61697;BME280;47610;52.252;20.922;2022-09-12T07:09:55;99966.55;;;11.92;77.46
61697;BME280;47610;52.252;20.922;2022-09-12T07:12:42;99969.75;;;12.01;77.24
61697;BME280;47610;52.252;20.922;2022-09-12T07:15:31;99972.56;;;12.05;77.46
61697;BME280;47610;52.252;20.922;2022-09-12T07:18:20;99975.77;;;12.07;77.11
61697;BME280;47610;52.252;20.922;2022-09-12T07:21:09;99980.36;;;12.12;77.00
61697;BME280;47610;52.252;20.922;2022-09-12T07:23:56;99983.76;;;12.13;77.06
61697;BME280;47610;52.252;20.922;2022-09-12T07:26:43;99985.29;;;12.15;76.94
61697;BME280;47610;52.252;20.922;2022-09-12T07:29:31;99986.85;;;12.14;77.06
61697;BME280;47610;52.252;20.922;2022-09-12T07:32:18;99990.34;;;12.13;76.62
61697;BME280;47610;52.252;20.922;2022-09-12T07:35:06;99997.59;;;12.10;77.11
61697;BME280;47610;52.252;20.922;2022-09-12T07:37:53;100002.35;;;12.13;76.98
61697;BME280;47610;52.252;20.922;2022-09-12T07:40:40;100004.96;;;12.16;77.27
61697;BME280;47610;52.252;20.922;2022-09-12T07:43:28;100010.25;;;12.17;77.47
61697;BME280;47610;52.252;20.922;2022-09-12T07:46:15;100012.42;;;12.16;76.97
61697;BME280;47610;52.252;20.922;2022-09-12T07:49:02;100012.77;;;12.14;77.16
61697;BME280;47610;52.252;20.922;2022-09-12T07:51:49;100018.55;;;12.13;77.48
61697;BME280;47610;52.252;20.922;2022-09-12T07:54:36;100013.23;;;12.12;77.39
61697;BME280;47610;52.252;20.922;2022-09-12T07:57:24;100017.98;;;12.17;77.78
61697;BME280;47610;52.252;20.922;2022-09-12T08:00:13;100019.11;;;12.25;77.55
61697;BME280;47610;52.252;20.922;2022-09-12T08:03:01;100025.61;;;12.30;77.46
61697;BME280;47610;52.252;20.922;2022-09-12T08:05:48;100023.88;;;12.35;77.71
61697;BME280;47610;52.252;20.922;2022-09-12T08:08:37;100023.34;;;12.43;77.58
61697;BME280;47610;52.252;20.922;2022-09-12T08:11:26;100031.30;;;12.51;77.21
61697;BME280;47610;52.252;20.922;2022-09-12T08:14:14;100029.33;;;12.53;77.43
61697;BME280;47610;52.252;20.922;2022-09-12T08:17:01;100031.11;;;12.59;77.19
61697;BME280;47610;52.252;20.922;2022-09-12T08:19:48;100035.21;;;12.62;76.85
61697;BME280;47610;52.252;20.922;2022-09-12T08:22:35;100036.05;;;12.66;76.93
61697;BME280;47610;52.252;20.922;2022-09-12T08:25:24;100031.55;;;12.68;76.89
61697;BME280;47610;52.252;20.922;2022-09-12T08:28:11;100032.96;;;12.73;76.90
61697;BME280;47610;52.252;20.922;2022-09-12T08:31:02;100032.55;;;12.78;76.75
61697;BME280;47610;52.252;20.922;2022-09-12T08:33:50;100029.77;;;12.80;76.77
61697;BME280;47610;52.252;20.922;2022-09-12T08:36:37;100030.30;;;12.85;76.72
61697;BME280;47610;52.252;20.922;2022-09-12T08:39:24;100032.02;;;12.89;76.93
61697;BME280;47610;52.252;20.922;2022-09-12T08:42:13;100035.00;;;12.99;77.05
61697;BME280;47610;52.252;20.922;2022-09-12T08:45:12;100031.25;;;13.05;76.71
61697;BME280;47610;52.252;20.922;2022-09-12T08:48:05;100028.66;;;13.09;76.43
61697;BME280;47610;52.252;20.922;2022-09-12T08:50:54;100030.53;;;13.13;76.18
61697;BME280;47610;52.252;20.922;2022-09-12T08:53:44;100030.75;;;13.17;76.08
61697;BME280;47610;52.252;20.922;2022-09-12T08:56:36;100032.75;;;13.19;75.94
61697;BME280;47610;52.252;20.922;2022-09-12T08:59:26;100032.66;;;13.21;75.78
61697;BME280;47610;52.252;20.922;2022-09-12T09:02:39;100035.88;;;13.29;75.73
61697;BME280;47610;52.252;20.922;2022-09-12T09:05:43;100037.92;;;13.36;75.55
61697;BME280;47610;52.252;20.922;2022-09-12T09:08:47;100038.61;;;13.41;75.53
61697;BME280;47610;52.252;20.922;2022-09-12T09:11:51;100039.34;;;13.43;75.28
61697;BME280;47610;52.252;20.922;2022-09-12T09:14:55;100035.04;;;13.45;75.68
61697;BME280;47610;52.252;20.922;2022-09-12T09:17:49;100039.48;;;13.51;75.37
61697;BME280;47610;52.252;20.922;2022-09-12T09:20:41;100041.05;;;13.56;75.16
61697;BME280;47610;52.252;20.922;2022-09-12T09:23:34;100042.64;;;13.57;75.37
61697;BME280;47610;52.252;20.922;2022-09-12T09:26:29;100045.17;;;13.58;75.04
61697;BME280;47610;52.252;20.922;2022-09-12T09:29:25;100049.02;;;13.61;74.75
61697;BME280;47610;52.252;20.922;2022-09-12T09:32:18;100046.24;;;13.66;74.55
61697;BME280;47610;52.252;20.922;2022-09-12T09:35:18;100044.30;;;13.72;74.41
61697;BME280;47610;52.252;20.922;2022-09-12T09:38:21;100046.66;;;13.79;74.57
61697;BME280;47610;52.252;20.922;2022-09-12T09:41:24;100051.23;;;13.86;74.59
61697;BME280;47610;52.252;20.922;2022-09-12T09:44:16;100050.44;;;13.96;74.33
61697;BME280;47610;52.252;20.922;2022-09-12T09:47:03;100052.84;;;14.09;74.18
61697;BME280;47610;52.252;20.922;2022-09-12T09:49:51;100057.30;;;14.21;73.93
61697;BME280;47610;52.252;20.922;2022-09-12T09:52:39;100058.77;;;14.28;73.35
61697;BME280;47610;52.252;20.922;2022-09-12T09:55:31;100059.61;;;14.30;73.09
61697;BME280;47610;52.252;20.922;2022-09-12T09:58:30;100059.36;;;14.29;72.67
61697;BME280;47610;52.252;20.922;2022-09-12T10:01:18;100059.42;;;14.23;72.54
61697;BME280;47610;52.252;20.922;2022-09-12T10:04:17;100060.58;;;14.19;72.60
61697;BME280;47610;52.252;20.922;2022-09-12T10:07:16;100060.24;;;14.12;72.76
61697;BME280;47610;52.252;20.922;2022-09-12T10:10:16;100067.91;;;14.13;72.80
61697;BME280;47610;52.252;20.922;2022-09-12T10:13:20;100071.30;;;14.13;72.84
61697;BME280;47610;52.252;20.922;2022-09-12T10:16:20;100073.08;;;14.07;72.91
61697;BME280;47610;52.252;20.922;2022-09-12T10:19:20;100079.00;;;14.05;72.54
61697;BME280;47610;52.252;20.922;2022-09-12T10:22:18;100082.64;;;14.02;72.46
61697;BME280;47610;52.252;20.922;2022-09-12T10:25:14;100086.35;;;14.05;72.74
61697;BME280;47610;52.252;20.922;2022-09-12T10:28:03;100090.06;;;14.07;72.60
61697;BME280;47610;52.252;20.922;2022-09-12T10:30:53;100081.98;;;14.08;72.67
61697;BME280;47610;52.252;20.922;2022-09-12T10:33:45;100086.30;;;14.08;72.47
61697;BME280;47610;52.252;20.922;2022-09-12T10:36:42;100091.73;;;14.07;72.33
61697;BME280;47610;52.252;20.922;2022-09-12T10:39:29;100093.24;;;14.03;72.30
61697;BME280;47610;52.252;20.922;2022-09-12T10:42:45;100098.08;;;14.00;72.10
61697;BME280;47610;52.252;20.922;2022-09-12T10:45:35;100097.77;;;13.98;72.40
61697;BME280;47610;52.252;20.922;2022-09-12T10:48:28;100094.95;;;13.98;72.65
61697;BME280;47610;52.252;20.922;2022-09-12T10:51:27;100097.82;;;14.02;72.45
61697;BME280;47610;52.252;20.922;2022-09-12T10:54:18;100095.88;;;14.05;72.63
61697;BME280;47610;52.252;20.922;2022-09-12T10:57:29;100104.36;;;14.07;72.72
61697;BME280;47610;52.252;20.922;2022-09-12T11:00:22;100102.14;;;14.07;72.67
61697;BME280;47610;52.252;20.922;2022-09-12T11:03:28;100104.05;;;14.06;72.38
61697;BME280;47610;52.252;20.922;2022-09-12T11:06:27;100105.48;;;14.06;72.54
61697;BME280;47610;52.252;20.922;2022-09-12T11:09:23;100108.70;;;14.08;72.57
61697;BME280;47610;52.252;20.922;2022-09-12T11:12:17;100107.75;;;14.15;72.39
61697;BME280;47610;52.252;20.922;2022-09-12T11:15:25;100106.52;;;14.24;72.44
61697;BME280;47610;52.252;20.922;2022-09-12T11:18:30;100110.18;;;14.32;72.30
61697;BME280;47610;52.252;20.922;2022-09-12T11:21:34;100105.81;;;14.43;72.31
61697;BME280;47610;52.252;20.922;2022-09-12T11:24:38;100105.52;;;14.56;72.11
61697;BME280;47610;52.252;20.922;2022-09-12T11:27:41;100106.96;;;14.66;71.64
61697;BME280;47610;52.252;20.922;2022-09-12T11:30:39;100110.02;;;14.68;71.16
61697;BME280;47610;52.252;20.922;2022-09-12T11:33:41;100107.54;;;14.65;70.87
61697;BME280;47610;52.252;20.922;2022-09-12T11:36:35;100106.48;;;14.61;70.75
61697;BME280;47610;52.252;20.922;2022-09-12T11:39:30;100106.22;;;14.62;70.86
61697;BME280;47610;52.252;20.922;2022-09-12T11:42:30;100106.88;;;14.65;70.79
61697;BME280;47610;52.252;20.922;2022-09-12T11:45:22;100107.27;;;14.67;71.02
61697;BME280;47610;52.252;20.922;2022-09-12T11:48:18;100108.47;;;14.69;70.90
61697;BME280;47610;52.252;20.922;2022-09-12T11:51:19;100112.43;;;14.72;71.27
61697;BME280;47610;52.252;20.922;2022-09-12T11:54:17;100113.59;;;14.70;71.25
61697;BME280;47610;52.252;20.922;2022-09-12T11:57:13;100115.58;;;14.65;71.17
61697;BME280;47610;52.252;20.922;2022-09-12T12:00:08;100117.91;;;14.60;70.92
61697;BME280;47610;52.252;20.922;2022-09-12T12:03:06;100115.93;;;14.56;70.89
61697;BME280;47610;52.252;20.922;2022-09-12T12:05:56;100115.77;;;14.62;70.72
61697;BME280;47610;52.252;20.922;2022-09-12T12:08:45;100114.75;;;14.65;70.74
61697;BME280;47610;52.252;20.922;2022-09-12T12:11:38;100115.27;;;14.67;70.42
61697;BME280;47610;52.252;20.922;2022-09-12T12:14:32;100113.09;;;14.68;70.32
61697;BME280;47610;52.252;20.922;2022-09-12T12:17:24;100111.57;;;14.69;70.26
61697;BME280;47610;52.252;20.922;2022-09-12T12:20:16;100115.25;;;14.72;70.15
61697;BME280;47610;52.252;20.922;2022-09-12T12:23:03;100115.25;;;14.80;70.09
61697;BME280;47610;52.252;20.922;2022-09-12T12:25:54;100117.61;;;14.92;70.16
61697;BME280;47610;52.252;20.922;2022-09-12T12:28:56;100114.08;;;15.01;69.55
61697;BME280;47610;52.252;20.922;2022-09-12T12:38:02;100118.31;;;14.95;68.68
61697;BME280;47610;52.252;20.922;2022-09-12T12:40:50;100120.56;;;14.81;68.23
61697;BME280;47610;52.252;20.922;2022-09-12T12:43:37;100124.63;;;14.69;67.29
61697;BME280;47610;52.252;20.922;2022-09-12T12:46:24;100122.64;;;14.56;67.37
61697;BME280;47610;52.252;20.922;2022-09-12T12:49:19;100118.95;;;14.47;68.17
61697;BME280;47610;52.252;20.922;2022-09-12T12:52:15;100127.72;;;14.44;68.72
61697;BME280;47610;52.252;20.922;2022-09-12T12:55:04;100128.39;;;14.46;69.13
61697;BME280;47610;52.252;20.922;2022-09-12T12:57:53;100128.70;;;14.48;69.21
61697;BME280;47610;52.252;20.922;2022-09-12T13:00:41;100129.56;;;14.49;69.22
61697;BME280;47610;52.252;20.922;2022-09-12T13:03:32;100131.52;;;14.48;68.89
61697;BME280;47610;52.252;20.922;2022-09-12T13:06:30;100128.90;;;14.44;68.85
61697;BME280;47610;52.252;20.922;2022-09-12T13:09:23;100132.35;;;14.40;69.17
61697;BME280;47610;52.252;20.922;2022-09-12T13:12:18;100135.48;;;14.35;69.15
61697;BME280;47610;52.252;20.922;2022-09-12T13:15:45;100133.84;;;14.28;68.94
61697;BME280;47610;52.252;20.922;2022-09-12T13:18:39;100131.77;;;14.24;68.89
61697;BME280;47610;52.252;20.922;2022-09-12T13:21:27;100132.23;;;14.23;69.01
61697;BME280;47610;52.252;20.922;2022-09-12T13:24:17;100135.08;;;14.28;69.63
61697;BME280;47610;52.252;20.922;2022-09-12T13:27:18;100134.30;;;14.36;69.64
61697;BME280;47610;52.252;20.922;2022-09-12T13:30:12;100135.39;;;14.46;69.58
61697;BME280;47610;52.252;20.922;2022-09-12T13:33:08;100135.35;;;14.57;69.67
61697;BME280;47610;52.252;20.922;2022-09-12T13:36:22;100137.95;;;14.68;69.35
61697;BME280;47610;52.252;20.922;2022-09-12T13:39:20;100137.17;;;14.66;68.56
61697;BME280;47610;52.252;20.922;2022-09-12T13:42:40;100137.45;;;14.66;68.40
61697;BME280;47610;52.252;20.922;2022-09-12T13:45:27;100133.35;;;14.65;68.31
61697;BME280;47610;52.252;20.922;2022-09-12T13:48:17;100133.84;;;14.66;68.41
61697;BME280;47610;52.252;20.922;2022-09-12T13:51:05;100131.27;;;14.74;68.80
61697;BME280;47610;52.252;20.922;2022-09-12T13:53:54;100129.73;;;14.82;68.44
61697;BME280;47610;52.252;20.922;2022-09-12T13:56:48;100127.63;;;14.90;68.44
61697;BME280;47610;52.252;20.922;2022-09-12T13:59:42;100129.80;;;15.02;68.33
61697;BME280;47610;52.252;20.922;2022-09-12T14:02:29;100130.29;;;15.17;68.22
61697;BME280;47610;52.252;20.922;2022-09-12T14:05:21;100126.43;;;15.30;67.91
61697;BME280;47610;52.252;20.922;2022-09-12T14:08:12;100125.19;;;15.42;67.30
61697;BME280;47610;52.252;20.922;2022-09-12T14:10:59;100126.19;;;15.50;67.04
61697;BME280;47610;52.252;20.922;2022-09-12T14:13:53;100129.48;;;15.58;67.18
61697;BME280;47610;52.252;20.922;2022-09-12T14:16:42;100131.13;;;15.68;66.84
61697;BME280;47610;52.252;20.922;2022-09-12T14:19:29;100131.31;;;15.77;66.63
61697;BME280;47610;52.252;20.922;2022-09-12T14:22:16;100128.27;;;15.81;66.13
61697;BME280;47610;52.252;20.922;2022-09-12T14:25:04;100129.30;;;15.84;65.35
61697;BME280;47610;52.252;20.922;2022-09-12T14:27:53;100128.54;;;15.81;64.87
61697;BME280;47610;52.252;20.922;2022-09-12T14:30:40;100128.05;;;15.77;64.73
61697;BME280;47610;52.252;20.922;2022-09-12T14:33:28;100132.80;;;15.73;64.88
61697;BME280;47610;52.252;20.922;2022-09-12T14:36:22;100130.19;;;15.73;64.85
61697;BME280;47610;52.252;20.922;2022-09-12T14:39:17;100132.05;;;15.77;65.13
61697;BME280;47610;52.252;20.922;2022-09-12T14:42:10;100125.86;;;15.77;64.87
61697;BME280;47610;52.252;20.922;2022-09-12T14:44:57;100121.16;;;15.81;64.83
61697;BME280;47610;52.252;20.922;2022-09-12T14:47:49;100122.65;;;15.86;65.14
61697;BME280;47610;52.252;20.922;2022-09-12T14:50:36;100125.04;;;15.90;64.93
61697;BME280;47610;52.252;20.922;2022-09-12T14:53:29;100123.55;;;15.90;64.71
61697;BME280;47610;52.252;20.922;2022-09-12T14:56:18;100123.47;;;15.91;64.66
61697;BME280;47610;52.252;20.922;2022-09-12T14:59:28;100125.36;;;15.92;64.47
61697;BME280;47610;52.252;20.922;2022-09-12T15:02:25;100125.45;;;15.91;64.41